Terminal Aerodrome Forecast
Issued by NWS Upton, NY

Home | Current Version | Previous Version | Text Only | Print | Product List | Glossary On
Versions: 1 2 3 4 5 6 7 8 9 10 11 12 13 14 15 16 17 18 19 20 21 22 23 24 25 26 27 28 29 30 31 32 33 34 35 36 37
000
FTUS41 KOKX 231945 AAA
TAFISP
TAF AMD
KISP 231945Z 2320/2418 06025G42KT 6SM -DZ BR OVC020
     FM232300 06028G46KT 4SM -RA BR OVC012
      TEMPO 2323/2324 4SM -RA BKN010
     FM240000 06031G52KT 3SM RA BR OVC008
     FM240600 05030G48KT 2SM +RA BR OVC005
     FM240800 03020G36KT 2SM RA BR OVC005
     FM241500 01015G26KT 3SM -RA BR OVC008=

USA.gov is the U.S. government's official web portal to all federal, state and local government web resources and services.